This is the latest recevied weather packets stored in our database for station/object AA0PB. If no packets are shown the sender has not sent any weather packets the latest 10 day(s).
| Time | Temp. | Humidity | Pressure | Rain* | Wind** | Luminosity | Snow |
|---|---|---|---|---|---|---|---|
| 1778013015 | 16.67° C | 74% | 1017.4 hPa | 0 mm | - | 266 W/m² | - |
| 1778012711 | 15.56° C | 77% | 1017.2 hPa | 0 mm | - | 267 W/m² | - |
| 1778012407 | 15.56° C | 78% | 1017.2 hPa | 0 mm | - | 263 W/m² | - |
| 1778012104 | 16.11° C | 77% | 1017.4 hPa | 0 mm | - | 274 W/m² | - |
| 1778011802 | 15.56° C | 77% | 1017.4 hPa | 0 mm | - | 197 W/m² | - |
| 1778011499 | 15.56° C | 79% | 1017.4 hPa | 0 mm | - | 187 W/m² | - |
| 1778011195 | 15.56° C | 79% | 1017.4 hPa | 0 mm | - | 182 W/m² | - |
| 1778010892 | 15.56° C | 77% | 1017.2 hPa | 0 mm | - | 174 W/m² | - |
| 1778010590 | 16.11° C | 76% | 1017.3 hPa | 0 mm | - | 166 W/m² | - |
| 1778010287 | 15.56° C | 79% | 1017.4 hPa | 0 mm | - | 179 W/m² | - |
| 1778009987 | 15.56° C | 78% | 1017.6 hPa | 0 mm | - | 204 W/m² | - |
| 1778009685 | 16.11° C | 77% | 1017.5 hPa | 0 mm | - | 203 W/m² | - |
| 1778009382 | 15.56° C | 79% | 1017.6 hPa | 0 mm | - | 173 W/m² | - |
| 1778009081 | 15.56° C | 78% | 1017.4 hPa | 0 mm | - | 175 W/m² | - |
| 1778008777 | 15.56° C | 77% | 1017.3 hPa | 0 mm | - | 189 W/m² | - |
| 1778008476 | 15.56° C | 79% | 1017.4 hPa | 0 mm | - | 206 W/m² | - |
| 1778008172 | 15° C | 81% | 1017.5 hPa | 0 mm | - | 220 W/m² | - |
| 1778007868 | 15° C | 80% | 1017.4 hPa | 0 mm | - | 199 W/m² | - |
| 1778007563 | 15° C | 81% | 1017.5 hPa | 0 mm | - | 173 W/m² | - |
| 1778007261 | 14.44° C | 81% | 1017.6 hPa | 0 mm | - | 154 W/m² | - |
| 1778006957 | 15° C | 81% | 1017.5 hPa | 0 mm | - | 143 W/m² | - |
| 1778006654 | 14.44° C | 82% | 1017.4 hPa | 0 mm | - | 138 W/m² | - |
| 1778006351 | 14.44° C | 83% | 1017.4 hPa | 0 mm | - | 131 W/m² | - |
| 1778006048 | 15° C | 79% | 1017.5 hPa | 0 mm | - | 128 W/m² | - |
| 1778005744 | 15° C | 80% | 1017.4 hPa | 0 mm | - | 128 W/m² | - |
* Rain latest hour (hover to see other rain measurements)
** Current wind speed in m/s (hover to see current wind gust speed)